首页
METAR-TAF:

METAR-TAF

机场 :

Capo Bellavista

Tortolì, 意大利

纬度: 39-56N, 经度: 009-43E, 海拔: 138米

当前天气观测

该预报发布于1小时和20分钟前的08:55 UTC
风速4节,风向
温度 10°C
湿度 62%
气压 1020 hPa
能见度10公里或以上
1500米以下无云,无积雨云

METAR: LIEB 190855Z 36004KT CAVOK 10/03 Q1020 RMK BKN SCT070 SCT080 QUK 2 QUL 0 VIS MAR 30 KM MON LIB VIS MIN 9999

时间: 11:15 (10:15 UTC)


TAF: 丢失

超过4000个机场的气象观测和天气预报(METAR&TAF报告)。

可查询的气象台以黄色和红色小点在地图上表示。

将鼠标移到小点上方,可查看气象台名称。

然后点击查看天气观测和预报。

如需切换地图:点击带黑十字的绿色按钮放大地图;点击带横线的绿色按钮缩小地图;或者点击绿色箭头查看邻近地区的地图。


METAR-TAF: